sensor_id;sensor_type;location;lat;lon;timestamp;P1;durP1;ratioP1;P2;durP2;ratioP2
48623;SDS011;34422;45.802;16.114;2022-10-22T00:02:12;7.25;;;3.78;;
48623;SDS011;34422;45.802;16.114;2022-10-22T00:04:41;8.60;;;4.32;;
48623;SDS011;34422;45.802;16.114;2022-10-22T00:07:08;8.82;;;4.35;;
48623;SDS011;34422;45.802;16.114;2022-10-22T00:09:35;7.88;;;4.25;;
48623;SDS011;34422;45.802;16.114;2022-10-22T00:12:02;8.30;;;4.22;;
48623;SDS011;34422;45.802;16.114;2022-10-22T00:14:28;6.35;;;3.38;;
48623;SDS011;34422;45.802;16.114;2022-10-22T00:16:55;5.93;;;3.40;;
48623;SDS011;34422;45.802;16.114;2022-10-22T00:19:22;7.35;;;4.00;;
48623;SDS011;34422;45.802;16.114;2022-10-22T00:21:49;10.02;;;4.07;;
48623;SDS011;34422;45.802;16.114;2022-10-22T00:24:16;7.53;;;4.28;;
48623;SDS011;34422;45.802;16.114;2022-10-22T00:26:42;7.60;;;3.70;;
48623;SDS011;34422;45.802;16.114;2022-10-22T00:29:09;9.60;;;3.90;;
48623;SDS011;34422;45.802;16.114;2022-10-22T00:31:36;8.48;;;3.78;;
48623;SDS011;34422;45.802;16.114;2022-10-22T00:34:04;8.85;;;3.50;;
48623;SDS011;34422;45.802;16.114;2022-10-22T00:36:31;7.45;;;3.55;;
48623;SDS011;34422;45.802;16.114;2022-10-22T00:38:58;9.05;;;4.50;;
48623;SDS011;34422;45.802;16.114;2022-10-22T00:41:24;9.88;;;3.90;;
48623;SDS011;34422;45.802;16.114;2022-10-22T00:43:52;8.05;;;4.20;;
48623;SDS011;34422;45.802;16.114;2022-10-22T00:46:21;10.63;;;4.25;;
48623;SDS011;34422;45.802;16.114;2022-10-22T00:48:48;10.95;;;4.35;;
48623;SDS011;34422;45.802;16.114;2022-10-22T00:51:15;6.70;;;3.60;;
48623;SDS011;34422;45.802;16.114;2022-10-22T00:53:43;7.85;;;4.00;;
48623;SDS011;34422;45.802;16.114;2022-10-22T00:56:13;9.10;;;5.93;;
48623;SDS011;34422;45.802;16.114;2022-10-22T00:58:44;11.23;;;6.38;;
48623;SDS011;34422;45.802;16.114;2022-10-22T01:01:16;9.82;;;4.85;;
48623;SDS011;34422;45.802;16.114;2022-10-22T01:03:47;7.60;;;4.55;;
48623;SDS011;34422;45.802;16.114;2022-10-22T01:06:17;8.30;;;5.07;;
48623;SDS011;34422;45.802;16.114;2022-10-22T01:11:29;7.57;;;4.07;;
48623;SDS011;34422;45.802;16.114;2022-10-22T01:16:58;8.15;;;3.33;;
48623;SDS011;34422;45.802;16.114;2022-10-22T01:22:08;8.05;;;3.90;;
48623;SDS011;34422;45.802;16.114;2022-10-22T01:25:00;6.10;;;3.60;;
48623;SDS011;34422;45.802;16.114;2022-10-22T01:27:39;6.07;;;3.75;;
48623;SDS011;34422;45.802;16.114;2022-10-22T01:30:10;6.57;;;3.17;;
48623;SDS011;34422;45.802;16.114;2022-10-22T01:32:48;7.80;;;3.45;;
48623;SDS011;34422;45.802;16.114;2022-10-22T01:35:18;9.23;;;3.90;;
48623;SDS011;34422;45.802;16.114;2022-10-22T01:37:51;7.82;;;4.07;;
48623;SDS011;34422;45.802;16.114;2022-10-22T01:40:23;6.07;;;3.50;;
48623;SDS011;34422;45.802;16.114;2022-10-22T01:45:23;5.78;;;3.80;;
48623;SDS011;34422;45.802;16.114;2022-10-22T01:48:05;7.78;;;3.67;;
48623;SDS011;34422;45.802;16.114;2022-10-22T01:56:28;10.35;;;4.80;;
48623;SDS011;34422;45.802;16.114;2022-10-22T01:59:08;7.28;;;3.63;;
48623;SDS011;34422;45.802;16.114;2022-10-22T02:04:51;10.32;;;4.15;;
48623;SDS011;34422;45.802;16.114;2022-10-22T02:07:36;6.50;;;3.65;;
48623;SDS011;34422;45.802;16.114;2022-10-22T02:10:07;6.50;;;3.78;;
48623;SDS011;34422;45.802;16.114;2022-10-22T02:12:36;7.57;;;4.10;;
48623;SDS011;34422;45.802;16.114;2022-10-22T02:15:04;6.45;;;4.05;;
48623;SDS011;34422;45.802;16.114;2022-10-22T02:17:31;7.63;;;4.28;;
48623;SDS011;34422;45.802;16.114;2022-10-22T02:20:03;8.18;;;3.53;;
48623;SDS011;34422;45.802;16.114;2022-10-22T02:22:35;8.60;;;4.07;;
48623;SDS011;34422;45.802;16.114;2022-10-22T02:25:03;7.38;;;4.10;;
48623;SDS011;34422;45.802;16.114;2022-10-22T02:27:40;7.75;;;3.90;;
48623;SDS011;34422;45.802;16.114;2022-10-22T02:30:14;12.93;;;4.00;;
48623;SDS011;34422;45.802;16.114;2022-10-22T02:32:46;6.65;;;4.07;;
48623;SDS011;34422;45.802;16.114;2022-10-22T02:35:17;8.10;;;3.78;;
48623;SDS011;34422;45.802;16.114;2022-10-22T02:37:46;6.72;;;4.32;;
48623;SDS011;34422;45.802;16.114;2022-10-22T02:40:15;7.93;;;4.32;;
48623;SDS011;34422;45.802;16.114;2022-10-22T02:42:42;8.32;;;4.10;;
48623;SDS011;34422;45.802;16.114;2022-10-22T02:45:12;8.18;;;4.63;;
48623;SDS011;34422;45.802;16.114;2022-10-22T02:47:39;11.20;;;3.78;;
48623;SDS011;34422;45.802;16.114;2022-10-22T02:50:06;6.63;;;3.83;;
48623;SDS011;34422;45.802;16.114;2022-10-22T02:52:34;6.90;;;4.10;;
48623;SDS011;34422;45.802;16.114;2022-10-22T02:55:00;6.53;;;3.90;;
48623;SDS011;34422;45.802;16.114;2022-10-22T02:57:27;6.40;;;4.00;;
48623;SDS011;34422;45.802;16.114;2022-10-22T02:59:54;7.50;;;4.05;;
48623;SDS011;34422;45.802;16.114;2022-10-22T03:02:21;6.55;;;3.42;;
48623;SDS011;34422;45.802;16.114;2022-10-22T03:04:48;9.57;;;4.03;;
48623;SDS011;34422;45.802;16.114;2022-10-22T03:07:15;8.23;;;3.70;;
48623;SDS011;34422;45.802;16.114;2022-10-22T03:09:41;9.57;;;3.83;;
48623;SDS011;34422;45.802;16.114;2022-10-22T03:12:08;8.50;;;4.68;;
48623;SDS011;34422;45.802;16.114;2022-10-22T03:14:35;9.43;;;4.05;;
48623;SDS011;34422;45.802;16.114;2022-10-22T03:17:02;9.25;;;3.88;;
48623;SDS011;34422;45.802;16.114;2022-10-22T03:19:28;5.50;;;3.38;;
48623;SDS011;34422;45.802;16.114;2022-10-22T03:21:56;10.15;;;3.85;;
48623;SDS011;34422;45.802;16.114;2022-10-22T03:24:36;12.00;;;3.95;;
48623;SDS011;34422;45.802;16.114;2022-10-22T03:27:06;9.48;;;3.45;;
48623;SDS011;34422;45.802;16.114;2022-10-22T03:29:34;9.40;;;3.50;;
48623;SDS011;34422;45.802;16.114;2022-10-22T03:32:03;7.50;;;3.60;;
48623;SDS011;34422;45.802;16.114;2022-10-22T03:34:30;8.43;;;3.63;;
48623;SDS011;34422;45.802;16.114;2022-10-22T03:36:57;7.28;;;3.67;;
48623;SDS011;34422;45.802;16.114;2022-10-22T03:39:27;6.65;;;3.65;;
48623;SDS011;34422;45.802;16.114;2022-10-22T03:41:57;8.27;;;3.97;;
48623;SDS011;34422;45.802;16.114;2022-10-22T03:44:24;8.23;;;3.83;;
48623;SDS011;34422;45.802;16.114;2022-10-22T03:46:51;7.88;;;4.00;;
48623;SDS011;34422;45.802;16.114;2022-10-22T03:49:18;6.68;;;3.47;;
48623;SDS011;34422;45.802;16.114;2022-10-22T03:51:45;7.20;;;4.25;;
48623;SDS011;34422;45.802;16.114;2022-10-22T03:54:12;8.95;;;3.88;;
48623;SDS011;34422;45.802;16.114;2022-10-22T03:56:38;11.68;;;4.97;;
48623;SDS011;34422;45.802;16.114;2022-10-22T03:59:05;7.45;;;3.90;;
48623;SDS011;34422;45.802;16.114;2022-10-22T04:01:32;7.13;;;4.05;;
48623;SDS011;34422;45.802;16.114;2022-10-22T04:03:59;8.32;;;3.80;;
48623;SDS011;34422;45.802;16.114;2022-10-22T04:06:27;9.57;;;4.13;;
48623;SDS011;34422;45.802;16.114;2022-10-22T04:08:55;7.97;;;3.83;;
48623;SDS011;34422;45.802;16.114;2022-10-22T04:11:21;9.55;;;4.50;;
48623;SDS011;34422;45.802;16.114;2022-10-22T04:13:48;10.85;;;4.13;;
48623;SDS011;34422;45.802;16.114;2022-10-22T04:16:16;6.03;;;3.67;;
48623;SDS011;34422;45.802;16.114;2022-10-22T04:18:46;7.03;;;4.30;;
48623;SDS011;34422;45.802;16.114;2022-10-22T04:21:14;8.43;;;4.03;;
48623;SDS011;34422;45.802;16.114;2022-10-22T04:23:44;9.23;;;4.50;;
48623;SDS011;34422;45.802;16.114;2022-10-22T04:26:15;6.85;;;4.05;;
48623;SDS011;34422;45.802;16.114;2022-10-22T04:28:43;6.57;;;3.67;;
48623;SDS011;34422;45.802;16.114;2022-10-22T04:31:11;7.50;;;3.53;;
48623;SDS011;34422;45.802;16.114;2022-10-22T04:33:40;7.70;;;4.05;;
48623;SDS011;34422;45.802;16.114;2022-10-22T04:36:11;7.15;;;3.95;;
48623;SDS011;34422;45.802;16.114;2022-10-22T04:38:39;9.00;;;4.25;;
48623;SDS011;34422;45.802;16.114;2022-10-22T04:41:14;9.15;;;4.30;;
48623;SDS011;34422;45.802;16.114;2022-10-22T04:43:46;14.88;;;4.40;;
48623;SDS011;34422;45.802;16.114;2022-10-22T04:46:14;8.20;;;4.38;;
48623;SDS011;34422;45.802;16.114;2022-10-22T04:48:43;8.55;;;4.75;;
48623;SDS011;34422;45.802;16.114;2022-10-22T04:51:12;7.93;;;3.92;;
48623;SDS011;34422;45.802;16.114;2022-10-22T04:53:40;8.40;;;4.63;;
48623;SDS011;34422;45.802;16.114;2022-10-22T04:56:08;8.05;;;4.05;;
48623;SDS011;34422;45.802;16.114;2022-10-22T04:58:42;6.47;;;4.30;;
48623;SDS011;34422;45.802;16.114;2022-10-22T05:01:19;6.15;;;4.15;;
48623;SDS011;34422;45.802;16.114;2022-10-22T05:03:49;7.18;;;4.32;;
48623;SDS011;34422;45.802;16.114;2022-10-22T05:06:17;8.25;;;4.80;;
48623;SDS011;34422;45.802;16.114;2022-10-22T05:08:46;7.93;;;4.35;;
48623;SDS011;34422;45.802;16.114;2022-10-22T05:11:15;6.57;;;4.28;;
48623;SDS011;34422;45.802;16.114;2022-10-22T05:13:43;9.90;;;4.50;;
48623;SDS011;34422;45.802;16.114;2022-10-22T05:16:11;8.80;;;4.78;;
48623;SDS011;34422;45.802;16.114;2022-10-22T05:18:40;7.10;;;4.22;;
48623;SDS011;34422;45.802;16.114;2022-10-22T05:21:12;8.60;;;4.15;;
48623;SDS011;34422;45.802;16.114;2022-10-22T05:23:41;10.90;;;4.15;;
48623;SDS011;34422;45.802;16.114;2022-10-22T05:26:09;9.68;;;4.20;;
48623;SDS011;34422;45.802;16.114;2022-10-22T05:28:37;8.60;;;4.18;;
48623;SDS011;34422;45.802;16.114;2022-10-22T05:31:05;7.57;;;4.18;;
48623;SDS011;34422;45.802;16.114;2022-10-22T05:33:33;9.65;;;4.28;;
48623;SDS011;34422;45.802;16.114;2022-10-22T05:36:01;10.07;;;4.60;;
48623;SDS011;34422;45.802;16.114;2022-10-22T05:38:30;9.18;;;4.22;;
48623;SDS011;34422;45.802;16.114;2022-10-22T05:41:02;8.70;;;4.70;;
48623;SDS011;34422;45.802;16.114;2022-10-22T05:43:33;12.75;;;4.93;;
48623;SDS011;34422;45.802;16.114;2022-10-22T05:46:04;8.52;;;4.18;;
48623;SDS011;34422;45.802;16.114;2022-10-22T05:48:33;6.93;;;4.18;;
48623;SDS011;34422;45.802;16.114;2022-10-22T05:51:01;10.15;;;4.57;;
48623;SDS011;34422;45.802;16.114;2022-10-22T05:53:33;9.15;;;4.65;;
48623;SDS011;34422;45.802;16.114;2022-10-22T05:56:10;8.20;;;4.70;;
48623;SDS011;34422;45.802;16.114;2022-10-22T05:58:39;9.27;;;5.00;;
48623;SDS011;34422;45.802;16.114;2022-10-22T06:01:13;12.10;;;5.72;;
48623;SDS011;34422;45.802;16.114;2022-10-22T06:03:42;11.57;;;5.68;;
48623;SDS011;34422;45.802;16.114;2022-10-22T06:06:21;12.88;;;5.43;;
48623;SDS011;34422;45.802;16.114;2022-10-22T06:09:00;11.07;;;5.25;;
48623;SDS011;34422;45.802;16.114;2022-10-22T06:11:35;13.98;;;6.57;;
48623;SDS011;34422;45.802;16.114;2022-10-22T06:14:02;8.95;;;6.22;;
48623;SDS011;34422;45.802;16.114;2022-10-22T06:16:30;8.02;;;5.70;;
48623;SDS011;34422;45.802;16.114;2022-10-22T06:18:58;12.60;;;6.13;;
48623;SDS011;34422;45.802;16.114;2022-10-22T06:21:29;12.98;;;6.82;;
48623;SDS011;34422;45.802;16.114;2022-10-22T06:24:00;10.07;;;6.32;;
48623;SDS011;34422;45.802;16.114;2022-10-22T06:26:28;14.65;;;7.45;;
48623;SDS011;34422;45.802;16.114;2022-10-22T06:28:55;16.10;;;7.53;;
48623;SDS011;34422;45.802;16.114;2022-10-22T06:31:23;13.45;;;5.75;;
48623;SDS011;34422;45.802;16.114;2022-10-22T06:33:51;11.50;;;5.13;;
48623;SDS011;34422;45.802;16.114;2022-10-22T06:36:19;8.90;;;4.95;;
48623;SDS011;34422;45.802;16.114;2022-10-22T06:38:53;7.68;;;4.50;;
48623;SDS011;34422;45.802;16.114;2022-10-22T06:41:21;8.32;;;4.40;;
48623;SDS011;34422;45.802;16.114;2022-10-22T06:43:49;8.68;;;4.35;;
48623;SDS011;34422;45.802;16.114;2022-10-22T06:46:17;16.17;;;6.30;;
48623;SDS011;34422;45.802;16.114;2022-10-22T06:48:53;8.65;;;4.57;;
48623;SDS011;34422;45.802;16.114;2022-10-22T06:51:21;8.05;;;4.30;;
48623;SDS011;34422;45.802;16.114;2022-10-22T06:53:48;8.57;;;3.92;;
48623;SDS011;34422;45.802;16.114;2022-10-22T06:56:17;12.05;;;5.10;;
48623;SDS011;34422;45.802;16.114;2022-10-22T06:58:47;11.23;;;5.60;;
48623;SDS011;34422;45.802;16.114;2022-10-22T07:01:16;12.20;;;5.50;;
48623;SDS011;34422;45.802;16.114;2022-10-22T07:03:45;9.95;;;5.78;;
48623;SDS011;34422;45.802;16.114;2022-10-22T07:06:12;10.05;;;5.55;;
48623;SDS011;34422;45.802;16.114;2022-10-22T07:08:40;16.80;;;6.70;;
48623;SDS011;34422;45.802;16.114;2022-10-22T07:11:12;12.75;;;5.03;;
48623;SDS011;34422;45.802;16.114;2022-10-22T07:13:40;21.90;;;6.00;;
48623;SDS011;34422;45.802;16.114;2022-10-22T07:16:07;11.68;;;5.30;;
48623;SDS011;34422;45.802;16.114;2022-10-22T07:18:35;9.57;;;5.00;;
48623;SDS011;34422;45.802;16.114;2022-10-22T07:21:03;8.15;;;4.95;;
48623;SDS011;34422;45.802;16.114;2022-10-22T07:23:31;11.20;;;4.90;;
48623;SDS011;34422;45.802;16.114;2022-10-22T07:25:58;8.40;;;5.03;;
48623;SDS011;34422;45.802;16.114;2022-10-22T07:28:28;11.77;;;4.97;;
48623;SDS011;34422;45.802;16.114;2022-10-22T07:30:55;13.05;;;7.25;;
48623;SDS011;34422;45.802;16.114;2022-10-22T07:33:22;14.02;;;7.38;;
48623;SDS011;34422;45.802;16.114;2022-10-22T07:35:49;12.60;;;5.78;;
48623;SDS011;34422;45.802;16.114;2022-10-22T07:38:16;8.77;;;4.53;;
48623;SDS011;34422;45.802;16.114;2022-10-22T07:40:43;14.43;;;4.57;;
48623;SDS011;34422;45.802;16.114;2022-10-22T07:43:09;10.32;;;4.50;;
48623;SDS011;34422;45.802;16.114;2022-10-22T07:45:36;12.38;;;4.25;;
48623;SDS011;34422;45.802;16.114;2022-10-22T07:48:03;8.63;;;4.78;;
48623;SDS011;34422;45.802;16.114;2022-10-22T07:50:30;7.70;;;4.55;;
48623;SDS011;34422;45.802;16.114;2022-10-22T07:52:57;9.32;;;4.00;;
48623;SDS011;34422;45.802;16.114;2022-10-22T07:55:24;9.43;;;4.15;;
48623;SDS011;34422;45.802;16.114;2022-10-22T07:57:51;11.25;;;4.32;;
48623;SDS011;34422;45.802;16.114;2022-10-22T08:00:18;9.98;;;4.78;;
48623;SDS011;34422;45.802;16.114;2022-10-22T08:02:45;16.20;;;5.90;;
48623;SDS011;34422;45.802;16.114;2022-10-22T08:05:12;13.98;;;5.05;;
48623;SDS011;34422;45.802;16.114;2022-10-22T08:07:39;12.93;;;6.28;;
48623;SDS011;34422;45.802;16.114;2022-10-22T08:10:06;24.63;;;15.23;;
48623;SDS011;34422;45.802;16.114;2022-10-22T08:12:33;13.55;;;5.78;;
48623;SDS011;34422;45.802;16.114;2022-10-22T08:15:01;11.52;;;5.60;;
48623;SDS011;34422;45.802;16.114;2022-10-22T08:17:28;12.40;;;5.65;;
48623;SDS011;34422;45.802;16.114;2022-10-22T08:19:55;13.10;;;5.90;;
48623;SDS011;34422;45.802;16.114;2022-10-22T08:22:22;14.25;;;4.97;;
48623;SDS011;34422;45.802;16.114;2022-10-22T08:24:49;11.88;;;5.10;;
48623;SDS011;34422;45.802;16.114;2022-10-22T08:27:15;12.20;;;4.05;;
48623;SDS011;34422;45.802;16.114;2022-10-22T08:29:42;9.07;;;4.35;;
48623;SDS011;34422;45.802;16.114;2022-10-22T08:32:09;10.27;;;5.25;;
48623;SDS011;34422;45.802;16.114;2022-10-22T08:34:36;11.80;;;5.18;;
48623;SDS011;34422;45.802;16.114;2022-10-22T08:37:03;11.38;;;5.20;;
48623;SDS011;34422;45.802;16.114;2022-10-22T08:39:30;11.95;;;4.70;;
48623;SDS011;34422;45.802;16.114;2022-10-22T08:50:15;10.70;;;4.15;;
48623;SDS011;34422;45.802;16.114;2022-10-22T08:52:48;8.68;;;4.00;;
48623;SDS011;34422;45.802;16.114;2022-10-22T08:55:19;15.93;;;4.88;;
48623;SDS011;34422;45.802;16.114;2022-10-22T09:00:44;8.60;;;4.40;;
48623;SDS011;34422;45.802;16.114;2022-10-22T09:06:14;12.63;;;3.97;;
48623;SDS011;34422;45.802;16.114;2022-10-22T09:08:49;10.90;;;4.18;;
48623;SDS011;34422;45.802;16.114;2022-10-22T09:11:26;9.50;;;3.90;;
48623;SDS011;34422;45.802;16.114;2022-10-22T09:24:39;11.73;;;5.80;;
48623;SDS011;34422;45.802;16.114;2022-10-22T09:29:46;12.70;;;6.75;;
48623;SDS011;34422;45.802;16.114;2022-10-22T09:32:14;12.07;;;6.82;;
48623;SDS011;34422;45.802;16.114;2022-10-22T09:34:48;11.32;;;5.88;;
48623;SDS011;34422;45.802;16.114;2022-10-22T09:37:16;13.30;;;7.25;;
48623;SDS011;34422;45.802;16.114;2022-10-22T09:39:46;12.45;;;7.15;;
48623;SDS011;34422;45.802;16.114;2022-10-22T09:42:17;11.20;;;6.03;;
48623;SDS011;34422;45.802;16.114;2022-10-22T09:45:00;11.40;;;5.95;;
48623;SDS011;34422;45.802;16.114;2022-10-22T09:50:17;10.90;;;5.28;;
48623;SDS011;34422;45.802;16.114;2022-10-22T09:52:53;13.18;;;5.40;;
48623;SDS011;34422;45.802;16.114;2022-10-22T09:55:25;12.43;;;6.13;;
48623;SDS011;34422;45.802;16.114;2022-10-22T09:57:54;12.20;;;6.80;;
48623;SDS011;34422;45.802;16.114;2022-10-22T10:00:24;11.75;;;5.78;;
48623;SDS011;34422;45.802;16.114;2022-10-22T10:02:53;15.63;;;5.88;;
48623;SDS011;34422;45.802;16.114;2022-10-22T10:05:26;10.40;;;5.70;;
48623;SDS011;34422;45.802;16.114;2022-10-22T10:08:00;12.20;;;5.88;;
48623;SDS011;34422;45.802;16.114;2022-10-22T10:13:23;11.55;;;5.53;;
48623;SDS011;34422;45.802;16.114;2022-10-22T10:15:54;9.88;;;4.95;;
48623;SDS011;34422;45.802;16.114;2022-10-22T10:18:31;8.85;;;4.35;;
48623;SDS011;34422;45.802;16.114;2022-10-22T10:21:13;10.30;;;5.05;;
48623;SDS011;34422;45.802;16.114;2022-10-22T10:27:01;16.63;;;9.55;;
48623;SDS011;34422;45.802;16.114;2022-10-22T10:30:18;24.95;;;16.35;;
48623;SDS011;34422;45.802;16.114;2022-10-22T10:32:27;18.58;;;11.45;;
48623;SDS011;34422;45.802;16.114;2022-10-22T10:35:23;13.57;;;9.13;;
48623;SDS011;34422;45.802;16.114;2022-10-22T10:41:09;14.63;;;6.85;;
48623;SDS011;34422;45.802;16.114;2022-10-22T10:43:49;15.05;;;7.10;;
48623;SDS011;34422;45.802;16.114;2022-10-22T10:49:28;9.18;;;5.30;;
48623;SDS011;34422;45.802;16.114;2022-10-22T10:52:02;9.88;;;5.35;;
48623;SDS011;34422;45.802;16.114;2022-10-22T10:57:45;10.18;;;5.40;;
48623;SDS011;34422;45.802;16.114;2022-10-22T11:08:25;10.48;;;4.63;;
48623;SDS011;34422;45.802;16.114;2022-10-22T11:11:10;14.23;;;5.30;;
48623;SDS011;34422;45.802;16.114;2022-10-22T11:17:03;10.20;;;5.65;;
48623;SDS011;34422;45.802;16.114;2022-10-22T11:19:37;15.30;;;6.45;;
48623;SDS011;34422;45.802;16.114;2022-10-22T11:22:30;16.70;;;6.70;;
48623;SDS011;34422;45.802;16.114;2022-10-22T11:27:43;16.23;;;6.80;;
48623;SDS011;34422;45.802;16.114;2022-10-22T11:30:17;15.70;;;6.65;;
48623;SDS011;34422;45.802;16.114;2022-10-22T11:32:46;17.40;;;7.05;;
48623;SDS011;34422;45.802;16.114;2022-10-22T11:35:19;12.70;;;6.40;;
48623;SDS011;34422;45.802;16.114;2022-10-22T11:37:50;17.45;;;7.00;;
48623;SDS011;34422;45.802;16.114;2022-10-22T11:43:08;18.10;;;6.72;;
48623;SDS011;34422;45.802;16.114;2022-10-22T11:45:40;23.17;;;6.78;;
48623;SDS011;34422;45.802;16.114;2022-10-22T11:50:49;12.95;;;7.20;;
48623;SDS011;34422;45.802;16.114;2022-10-22T11:55:55;13.02;;;7.10;;
48623;SDS011;34422;45.802;16.114;2022-10-22T11:58:41;15.32;;;7.05;;
48623;SDS011;34422;45.802;16.114;2022-10-22T12:03:50;11.85;;;7.25;;
48623;SDS011;34422;45.802;16.114;2022-10-22T12:06:20;13.32;;;7.60;;
48623;SDS011;34422;45.802;16.114;2022-10-22T12:14:22;13.77;;;7.35;;
48623;SDS011;34422;45.802;16.114;2022-10-22T12:19:28;14.85;;;7.28;;
48623;SDS011;34422;45.802;16.114;2022-10-22T12:21:58;18.55;;;7.72;;
48623;SDS011;34422;45.802;16.114;2022-10-22T12:24:51;12.80;;;7.15;;
48623;SDS011;34422;45.802;16.114;2022-10-22T12:29:52;11.75;;;6.63;;
48623;SDS011;34422;45.802;16.114;2022-10-22T12:32:34;15.27;;;7.03;;
48623;SDS011;34422;45.802;16.114;2022-10-22T12:35:05;17.00;;;7.45;;
48623;SDS011;34422;45.802;16.114;2022-10-22T12:37:34;14.35;;;7.63;;
48623;SDS011;34422;45.802;16.114;2022-10-22T12:40:18;18.05;;;8.73;;
48623;SDS011;34422;45.802;16.114;2022-10-22T12:42:54;18.02;;;7.93;;
48623;SDS011;34422;45.802;16.114;2022-10-22T12:45:27;14.07;;;7.47;;
48623;SDS011;34422;45.802;16.114;2022-10-22T12:47:57;17.60;;;8.13;;
48623;SDS011;34422;45.802;16.114;2022-10-22T12:53:21;13.02;;;7.05;;
48623;SDS011;34422;45.802;16.114;2022-10-22T12:55:53;11.60;;;6.60;;
48623;SDS011;34422;45.802;16.114;2022-10-22T12:58:21;11.90;;;6.43;;
48623;SDS011;34422;45.802;16.114;2022-10-22T13:00:53;11.25;;;6.47;;
48623;SDS011;34422;45.802;16.114;2022-10-22T13:03:28;11.20;;;6.20;;
48623;SDS011;34422;45.802;16.114;2022-10-22T13:08:57;16.92;;;8.40;;
48623;SDS011;34422;45.802;16.114;2022-10-22T13:11:33;16.50;;;6.95;;
48623;SDS011;34422;45.802;16.114;2022-10-22T13:14:04;12.65;;;6.15;;
48623;SDS011;34422;45.802;16.114;2022-10-22T13:22:31;25.13;;;11.88;;
48623;SDS011;34422;45.802;16.114;2022-10-22T13:27:45;15.75;;;7.05;;
48623;SDS011;34422;45.802;16.114;2022-10-22T13:30:21;14.75;;;9.10;;
48623;SDS011;34422;45.802;16.114;2022-10-22T13:35:29;16.45;;;7.25;;
48623;SDS011;34422;45.802;16.114;2022-10-22T13:37:58;13.55;;;7.22;;
48623;SDS011;34422;45.802;16.114;2022-10-22T13:40:26;16.95;;;7.85;;
48623;SDS011;34422;45.802;16.114;2022-10-22T13:42:53;18.35;;;7.45;;
48623;SDS011;34422;45.802;16.114;2022-10-22T13:45:20;12.40;;;7.55;;
48623;SDS011;34422;45.802;16.114;2022-10-22T13:47:48;14.35;;;7.10;;
48623;SDS011;34422;45.802;16.114;2022-10-22T13:50:18;11.10;;;6.78;;
48623;SDS011;34422;45.802;16.114;2022-10-22T13:52:48;13.85;;;7.70;;
48623;SDS011;34422;45.802;16.114;2022-10-22T13:55:22;13.98;;;6.90;;
48623;SDS011;34422;45.802;16.114;2022-10-22T13:57:51;11.57;;;7.32;;
48623;SDS011;34422;45.802;16.114;2022-10-22T14:00:21;9.67;;;7.20;;
48623;SDS011;34422;45.802;16.114;2022-10-22T14:02:48;11.35;;;6.57;;
48623;SDS011;34422;45.802;16.114;2022-10-22T14:05:19;12.15;;;7.70;;
48623;SDS011;34422;45.802;16.114;2022-10-22T14:07:46;13.48;;;8.18;;
48623;SDS011;34422;45.802;16.114;2022-10-22T14:10:15;15.63;;;9.35;;
48623;SDS011;34422;45.802;16.114;2022-10-22T14:12:45;22.52;;;12.38;;
48623;SDS011;34422;45.802;16.114;2022-10-22T14:15:14;20.48;;;12.23;;
48623;SDS011;34422;45.802;16.114;2022-10-22T14:17:43;18.83;;;11.52;;
48623;SDS011;34422;45.802;16.114;2022-10-22T14:20:16;17.60;;;10.75;;
48623;SDS011;34422;45.802;16.114;2022-10-22T14:22:46;15.65;;;8.55;;
48623;SDS011;34422;45.802;16.114;2022-10-22T14:25:15;18.10;;;7.82;;
48623;SDS011;34422;45.802;16.114;2022-10-22T14:27:44;14.85;;;8.38;;
48623;SDS011;34422;45.802;16.114;2022-10-22T14:30:16;16.27;;;8.45;;
48623;SDS011;34422;45.802;16.114;2022-10-22T14:32:48;17.98;;;7.53;;
48623;SDS011;34422;45.802;16.114;2022-10-22T14:35:17;31.75;;;17.50;;
48623;SDS011;34422;45.802;16.114;2022-10-22T14:37:47;24.05;;;13.90;;
48623;SDS011;34422;45.802;16.114;2022-10-22T14:40:15;38.08;;;20.80;;
48623;SDS011;34422;45.802;16.114;2022-10-22T14:42:44;30.27;;;15.15;;
48623;SDS011;34422;45.802;16.114;2022-10-22T14:47:39;26.05;;;13.80;;
48623;SDS011;34422;45.802;16.114;2022-10-22T14:50:06;19.85;;;11.40;;
48623;SDS011;34422;45.802;16.114;2022-10-22T14:52:33;10.38;;;5.30;;
48623;SDS011;34422;45.802;16.114;2022-10-22T14:55:00;9.27;;;3.88;;
48623;SDS011;34422;45.802;16.114;2022-10-22T14:57:27;7.40;;;3.80;;
48623;SDS011;34422;45.802;16.114;2022-10-22T14:59:54;6.47;;;3.70;;
48623;SDS011;34422;45.802;16.114;2022-10-22T15:02:40;8.18;;;3.40;;
48623;SDS011;34422;45.802;16.114;2022-10-22T15:05:07;5.25;;;3.35;;
48623;SDS011;34422;45.802;16.114;2022-10-22T15:07:34;6.15;;;3.25;;
48623;SDS011;34422;45.802;16.114;2022-10-22T15:10:01;6.55;;;2.38;;
48623;SDS011;34422;45.802;16.114;2022-10-22T15:12:29;6.13;;;2.30;;
48623;SDS011;34422;45.802;16.114;2022-10-22T15:14:55;6.75;;;2.22;;
48623;SDS011;34422;45.802;16.114;2022-10-22T15:17:22;8.15;;;1.67;;
48623;SDS011;34422;45.802;16.114;2022-10-22T15:19:49;5.57;;;1.98;;
48623;SDS011;34422;45.802;16.114;2022-10-22T15:22:16;5.57;;;3.22;;
48623;SDS011;34422;45.802;16.114;2022-10-22T15:24:43;4.53;;;2.25;;
48623;SDS011;34422;45.802;16.114;2022-10-22T15:27:14;4.53;;;1.90;;
48623;SDS011;34422;45.802;16.114;2022-10-22T15:29:41;5.63;;;2.28;;
48623;SDS011;34422;45.802;16.114;2022-10-22T15:32:08;8.90;;;3.15;;
48623;SDS011;34422;45.802;16.114;2022-10-22T15:34:39;6.30;;;3.70;;
48623;SDS011;34422;45.802;16.114;2022-10-22T15:37:09;7.10;;;3.40;;
48623;SDS011;34422;45.802;16.114;2022-10-22T15:39:40;7.40;;;3.90;;
48623;SDS011;34422;45.802;16.114;2022-10-22T15:42:08;6.88;;;3.85;;
48623;SDS011;34422;45.802;16.114;2022-10-22T15:44:35;8.07;;;4.72;;
48623;SDS011;34422;45.802;16.114;2022-10-22T15:47:02;7.72;;;4.45;;
48623;SDS011;34422;45.802;16.114;2022-10-22T15:49:29;10.82;;;6.15;;
48623;SDS011;34422;45.802;16.114;2022-10-22T15:51:56;9.15;;;5.50;;
48623;SDS011;34422;45.802;16.114;2022-10-22T15:54:24;15.60;;;7.50;;
48623;SDS011;34422;45.802;16.114;2022-10-22T15:56:54;13.30;;;6.07;;
48623;SDS011;34422;45.802;16.114;2022-10-22T15:59:22;12.00;;;6.63;;
48623;SDS011;34422;45.802;16.114;2022-10-22T16:01:50;13.63;;;6.70;;
48623;SDS011;34422;45.802;16.114;2022-10-22T16:04:17;10.48;;;6.57;;
48623;SDS011;34422;45.802;16.114;2022-10-22T16:06:45;9.10;;;5.95;;
48623;SDS011;34422;45.802;16.114;2022-10-22T16:09:15;12.38;;;5.85;;
48623;SDS011;34422;45.802;16.114;2022-10-22T16:11:44;11.60;;;6.55;;
48623;SDS011;34422;45.802;16.114;2022-10-22T16:14:11;12.07;;;5.78;;
48623;SDS011;34422;45.802;16.114;2022-10-22T16:16:44;10.30;;;6.30;;
48623;SDS011;34422;45.802;16.114;2022-10-22T16:19:14;14.35;;;7.82;;
48623;SDS011;34422;45.802;16.114;2022-10-22T16:21:42;21.83;;;14.43;;
48623;SDS011;34422;45.802;16.114;2022-10-22T16:24:10;13.73;;;9.32;;
48623;SDS011;34422;45.802;16.114;2022-10-22T16:26:37;15.10;;;9.77;;
48623;SDS011;34422;45.802;16.114;2022-10-22T16:29:04;12.35;;;8.13;;
48623;SDS011;34422;45.802;16.114;2022-10-22T16:31:32;11.70;;;7.60;;
48623;SDS011;34422;45.802;16.114;2022-10-22T16:33:59;11.93;;;7.68;;
48623;SDS011;34422;45.802;16.114;2022-10-22T16:36:26;22.88;;;20.35;;
48623;SDS011;34422;45.802;16.114;2022-10-22T16:38:53;14.00;;;9.80;;
48623;SDS011;34422;45.802;16.114;2022-10-22T16:41:22;14.55;;;10.63;;
48623;SDS011;34422;45.802;16.114;2022-10-22T16:43:50;17.48;;;12.52;;